createdAt,value
2018-05-14T00:00:13.424Z,15.00
2018-05-14T00:02:41.496Z,15.00
2018-05-14T00:05:09.551Z,15.10
2018-05-14T00:07:37.618Z,15.10
2018-05-14T00:10:05.714Z,15.10
2018-05-14T00:12:33.763Z,15.10
2018-05-14T00:15:01.856Z,15.00
2018-05-14T00:17:29.965Z,15.10
2018-05-14T00:19:58.058Z,15.10
2018-05-14T00:22:26.167Z,15.10
2018-05-14T00:24:54.261Z,15.10
2018-05-14T00:27:22.350Z,15.20
2018-05-14T00:29:50.437Z,15.20
2018-05-14T00:32:19.294Z,15.20
2018-05-14T00:34:55.067Z,15.20
2018-05-14T00:37:23.155Z,15.20
2018-05-14T00:39:51.270Z,15.10
2018-05-14T00:42:19.361Z,15.20
2018-05-14T00:44:47.446Z,15.10
2018-05-14T00:47:15.531Z,15.10
2018-05-14T00:49:44.382Z,15.10
2018-05-14T00:52:12.470Z,15.10
2018-05-14T00:57:41.287Z,15.10
2018-05-14T01:00:09.362Z,15.10
2018-05-14T01:02:37.452Z,15.10
2018-05-14T01:05:05.508Z,15.10
2018-05-14T01:07:35.879Z,15.00
2018-05-14T01:10:03.987Z,15.00
2018-05-14T01:12:32.065Z,15.00
2018-05-14T01:15:00.070Z,15.00
2018-05-14T01:17:28.133Z,15.00
2018-05-14T01:19:56.987Z,15.00
2018-05-14T01:22:31.106Z,15.00
2018-05-14T01:25:03.170Z,15.00
2018-05-14T01:27:31.224Z,15.00
2018-05-14T01:29:59.314Z,15.00
2018-05-14T01:32:27.416Z,15.00
2018-05-14T01:34:56.278Z,15.10
2018-05-14T01:37:24.366Z,15.00
2018-05-14T01:39:52.425Z,15.10
2018-05-14T01:42:20.508Z,15.10
2018-05-14T01:44:48.609Z,15.20
2018-05-14T01:47:16.682Z,15.20
2018-05-14T01:49:44.867Z,15.20
2018-05-14T01:52:12.962Z,15.30
2018-05-14T01:54:41.046Z,15.30
2018-05-14T01:57:09.157Z,15.30
2018-05-14T01:59:37.256Z,15.30
2018-05-14T02:02:05.319Z,15.30
2018-05-14T02:04:33.386Z,15.30
2018-05-14T02:07:01.441Z,15.30
2018-05-14T02:09:31.354Z,15.30
2018-05-14T02:12:00.230Z,15.30
2018-05-14T02:14:28.285Z,15.30
2018-05-14T02:16:57.366Z,15.30
2018-05-14T02:19:25.470Z,15.20
2018-05-14T02:24:28.912Z,15.10
2018-05-14T02:26:56.962Z,15.00
2018-05-14T02:29:25.856Z,14.90
2018-05-14T02:31:53.918Z,14.90
2018-05-14T02:34:22.003Z,14.90
2018-05-14T02:36:55.802Z,14.90
2018-05-14T02:39:24.075Z,14.80
2018-05-14T02:41:52.887Z,14.80
2018-05-14T02:44:20.934Z,14.80
2018-05-14T02:46:49.770Z,14.70
2018-05-14T02:49:17.846Z,14.70
2018-05-14T02:51:45.906Z,14.70
2018-05-14T02:54:13.983Z,14.60
2018-05-14T02:56:42.051Z,14.60
2018-05-14T02:59:10.111Z,14.60
2018-05-14T03:01:38.199Z,14.50
2018-05-14T03:04:06.297Z,14.50
2018-05-14T03:06:34.394Z,14.50
2018-05-14T03:09:03.228Z,14.40
2018-05-14T03:11:31.366Z,14.40
2018-05-14T03:13:59.502Z,14.40
2018-05-14T03:16:27.577Z,14.30
2018-05-14T03:18:55.655Z,14.30
2018-05-14T03:21:23.722Z,14.20
2018-05-14T03:24:02.786Z,14.00
2018-05-14T03:26:30.949Z,14.00
2018-05-14T03:28:59.806Z,13.90
2018-05-14T03:31:27.855Z,13.90
2018-05-14T03:33:56.026Z,13.90
2018-05-14T03:36:24.130Z,13.90
2018-05-14T03:38:52.983Z,13.80
2018-05-14T03:41:21.074Z,13.80
2018-05-14T03:43:49.170Z,13.80
2018-05-14T03:46:17.226Z,13.90
2018-05-14T03:48:45.280Z,13.90
2018-05-14T03:51:13.339Z,13.90
2018-05-14T03:53:41.397Z,14.00
2018-05-14T03:56:09.450Z,14.00
2018-05-14T03:58:49.298Z,14.00
2018-05-14T04:01:17.459Z,14.00
2018-05-14T04:03:58.272Z,13.90
2018-05-14T04:06:43.007Z,13.90
2018-05-14T04:09:11.121Z,13.90
2018-05-14T04:11:39.165Z,13.80
2018-05-14T04:14:07.220Z,13.90
2018-05-14T04:16:37.233Z,13.90
2018-05-14T04:19:06.093Z,14.00
2018-05-14T04:21:34.140Z,14.00
2018-05-14T04:24:02.222Z,14.10
2018-05-14T04:26:30.310Z,14.10
2018-05-14T04:28:58.378Z,14.10
2018-05-14T04:31:26.427Z,14.20
2018-05-14T04:33:54.489Z,14.20
2018-05-14T04:36:22.590Z,14.20
2018-05-14T04:38:50.836Z,14.20
2018-05-14T04:41:18.919Z,14.20
2018-05-14T04:43:46.995Z,14.20
2018-05-14T04:46:15.087Z,14.20
2018-05-14T04:48:43.178Z,14.30
2018-05-14T04:51:12.004Z,14.30
2018-05-14T04:53:40.095Z,14.30
2018-05-14T04:56:14.017Z,14.30
2018-05-14T04:58:42.114Z,14.20
2018-05-14T05:01:10.932Z,14.20
2018-05-14T05:03:38.998Z,14.20
2018-05-14T05:06:07.079Z,14.20
2018-05-14T05:08:35.162Z,14.20
2018-05-14T05:11:03.256Z,14.30
2018-05-14T05:13:31.358Z,14.30
2018-05-14T05:16:00.207Z,14.60
2018-05-14T05:18:28.305Z,14.50
2018-05-14T05:20:56.345Z,14.60
2018-05-14T05:23:24.443Z,14.70
2018-05-14T05:25:52.500Z,14.70
2018-05-14T05:28:20.580Z,14.80
2018-05-14T05:30:48.678Z,14.90
2018-05-14T05:33:17.494Z,15.00
2018-05-14T05:35:45.540Z,15.00
2018-05-14T05:38:23.333Z,15.00
2018-05-14T05:40:52.143Z,15.00
2018-05-14T05:43:20.234Z,15.00
2018-05-14T05:45:48.293Z,15.00
2018-05-14T05:48:16.347Z,15.00
2018-05-14T05:50:45.163Z,15.00
2018-05-14T05:53:13.208Z,15.00
2018-05-14T05:55:42.042Z,15.00
2018-05-14T05:58:10.124Z,15.00
2018-05-14T06:00:39.158Z,15.10
2018-05-14T06:03:08.026Z,15.30
2018-05-14T06:05:36.136Z,15.30
2018-05-14T06:08:04.222Z,15.30
2018-05-14T06:10:32.310Z,15.40
2018-05-14T06:13:00.400Z,15.40
2018-05-14T06:15:28.511Z,15.50
2018-05-14T06:17:56.555Z,15.50
2018-05-14T06:20:24.602Z,15.50
2018-05-14T06:22:52.694Z,15.60
2018-05-14T06:25:26.998Z,15.60
2018-05-14T06:28:01.916Z,15.60
2018-05-14T06:30:41.014Z,15.60
2018-05-14T06:36:04.625Z,15.80
2018-05-14T06:38:32.714Z,15.90
2018-05-14T06:41:02.763Z,15.90
2018-05-14T06:43:30.808Z,16.00
2018-05-14T06:45:58.879Z,16.00
2018-05-14T06:48:26.979Z,16.10
2018-05-14T06:50:55.030Z,16.10
2018-05-14T06:53:23.096Z,16.10
2018-05-14T06:55:51.170Z,16.10
2018-05-14T06:58:19.223Z,16.20
2018-05-14T07:00:47.418Z,16.20
2018-05-14T07:03:15.557Z,16.30
2018-05-14T07:05:44.383Z,16.50
2018-05-14T07:08:12.486Z,16.50
2018-05-14T07:10:41.374Z,16.60
2018-05-14T07:13:09.462Z,16.60
2018-05-14T07:15:37.566Z,16.60
2018-05-14T07:18:05.668Z,16.60
2018-05-14T07:20:33.751Z,16.60
2018-05-14T07:23:02.590Z,16.70
2018-05-14T07:25:30.759Z,16.60
2018-05-14T07:27:58.777Z,16.50
2018-05-14T07:30:26.829Z,16.50
2018-05-14T07:33:00.161Z,16.50
2018-05-14T07:35:28.965Z,16.60
2018-05-14T07:37:58.969Z,16.50
2018-05-14T07:40:37.705Z,16.50
2018-05-14T07:43:05.796Z,16.50
2018-05-14T07:45:43.946Z,16.60
2018-05-14T07:48:11.999Z,16.70
2018-05-14T07:50:52.726Z,16.70
2018-05-14T07:53:20.823Z,16.70
2018-05-14T07:55:48.992Z,16.80
2018-05-14T07:58:17.009Z,16.90
2018-05-14T08:00:45.848Z,17.10
2018-05-14T08:03:13.898Z,17.20
2018-05-14T08:05:42.050Z,17.30
2018-05-14T08:08:10.805Z,17.50
2018-05-14T08:10:44.654Z,17.50
2018-05-14T08:13:12.730Z,17.60
2018-05-14T08:15:40.839Z,17.90
2018-05-14T08:18:08.925Z,18.00
2018-05-14T08:20:36.962Z,18.10
2018-05-14T08:23:05.008Z,18.40
2018-05-14T08:25:33.095Z,18.50
2018-05-14T08:28:01.184Z,18.60
2018-05-14T08:30:29.334Z,18.70
2018-05-14T08:32:57.397Z,18.70
2018-05-14T08:35:26.206Z,18.60
2018-05-14T08:37:54.300Z,18.50
2018-05-14T08:40:22.382Z,18.60
2018-05-14T08:42:50.434Z,18.50
2018-05-14T08:45:18.518Z,18.50
2018-05-14T08:47:46.559Z,18.50
2018-05-14T08:50:17.680Z,18.50
2018-05-14T08:52:45.769Z,18.50
2018-05-14T08:55:13.834Z,18.50
2018-05-14T08:57:41.952Z,18.60
2018-05-14T09:00:09.952Z,18.60
2018-05-14T09:02:38.077Z,18.60
2018-05-14T09:05:06.182Z,18.50
2018-05-14T09:07:34.254Z,18.50
2018-05-14T09:10:02.346Z,18.50
2018-05-14T09:12:30.436Z,18.50
2018-05-14T09:14:58.536Z,18.60
2018-05-14T09:17:26.622Z,18.60
2018-05-14T09:19:54.698Z,18.70
2018-05-14T09:22:22.767Z,18.90
2018-05-14T09:24:50.854Z,19.00
2018-05-14T09:27:18.950Z,19.10
2018-05-14T09:29:47.020Z,19.20
2018-05-14T09:32:15.843Z,19.30
2018-05-14T09:34:43.963Z,19.30
2018-05-14T09:37:12.138Z,19.50
2018-05-14T09:39:40.138Z,19.60
2018-05-14T09:42:15.114Z,19.70
2018-05-14T09:44:43.194Z,19.70
2018-05-14T09:47:11.274Z,19.80
2018-05-14T09:49:39.277Z,19.90
2018-05-14T09:52:12.494Z,19.90
2018-05-14T09:54:40.542Z,19.90
2018-05-14T09:57:09.349Z,20.20
2018-05-14T09:59:38.425Z,20.20
2018-05-14T10:02:07.282Z,20.30
2018-05-14T10:04:35.334Z,20.30
2018-05-14T10:07:03.439Z,20.40
2018-05-14T10:09:32.245Z,20.50
2018-05-14T10:12:01.087Z,20.60
2018-05-14T10:14:29.359Z,20.50
2018-05-14T10:16:58.045Z,20.60
2018-05-14T10:19:26.123Z,20.60
2018-05-14T10:21:54.219Z,20.70
2018-05-14T10:24:22.263Z,20.80
2018-05-14T10:26:50.367Z,20.90
2018-05-14T10:29:19.218Z,21.00
2018-05-14T10:31:49.251Z,20.90
2018-05-14T10:34:17.340Z,21.00
2018-05-14T10:36:45.469Z,21.10
2018-05-14T10:39:13.537Z,21.10
2018-05-14T10:41:41.623Z,21.30
2018-05-14T10:44:09.683Z,21.30
2018-05-14T10:46:43.742Z,21.40
2018-05-14T10:49:11.802Z,21.50
2018-05-14T10:51:39.845Z,21.50
2018-05-14T10:54:07.923Z,21.60
2018-05-14T10:56:36.025Z,21.60
2018-05-14T10:59:04.138Z,21.70
2018-05-14T11:01:32.266Z,21.80
2018-05-14T11:04:00.452Z,21.80
2018-05-14T11:06:29.193Z,22.10
2018-05-14T11:08:57.270Z,22.10
2018-05-14T11:11:25.398Z,22.10
2018-05-14T11:13:54.203Z,22.20
2018-05-14T11:16:28.283Z,22.20
2018-05-14T11:18:56.337Z,22.30
2018-05-14T11:21:25.134Z,22.40
2018-05-14T11:23:57.143Z,22.40
2018-05-14T11:26:25.254Z,22.50
2018-05-14T11:28:53.338Z,22.70
2018-05-14T11:31:21.419Z,22.80
2018-05-14T11:33:49.467Z,23.00
2018-05-14T11:36:17.498Z,23.20
2018-05-14T11:38:45.551Z,23.40
2018-05-14T11:41:17.544Z,23.50
2018-05-14T11:43:45.621Z,23.40
2018-05-14T11:46:13.702Z,23.40
2018-05-14T11:48:41.801Z,23.50
2018-05-14T11:51:09.875Z,23.50
2018-05-14T11:53:37.978Z,23.60
2018-05-14T11:56:06.061Z,23.60
2018-05-14T11:58:35.090Z,23.60
2018-05-14T12:01:03.170Z,23.70
2018-05-14T12:03:37.222Z,23.80
2018-05-14T12:06:05.318Z,23.90
2018-05-14T12:08:33.415Z,24.00
2018-05-14T12:11:01.554Z,24.10
2018-05-14T12:13:29.597Z,24.20
2018-05-14T12:15:58.465Z,23.90
2018-05-14T12:18:26.498Z,23.90
2018-05-14T12:20:54.601Z,23.90
2018-05-14T12:23:22.678Z,23.90
2018-05-14T12:25:50.727Z,24.00
2018-05-14T12:28:18.728Z,24.20
2018-05-14T12:30:46.777Z,24.30
2018-05-14T12:33:14.862Z,24.30
2018-05-14T12:35:42.922Z,24.30
2018-05-14T12:38:10.965Z,24.30
2018-05-14T12:40:39.017Z,24.30
2018-05-14T12:43:07.053Z,24.40
2018-05-14T12:45:42.915Z,24.60
2018-05-14T12:48:11.735Z,24.70
2018-05-14T12:50:39.830Z,24.70
2018-05-14T12:53:12.874Z,24.80
2018-05-14T12:55:40.997Z,24.80
2018-05-14T12:58:09.082Z,24.90
2018-05-14T13:00:37.166Z,24.90
2018-05-14T13:03:05.230Z,25.00
2018-05-14T13:05:33.330Z,25.10
2018-05-14T13:08:02.176Z,25.10
2018-05-14T13:10:30.270Z,25.10
2018-05-14T13:12:58.403Z,25.20
2018-05-14T13:15:28.411Z,25.20
2018-05-14T13:17:56.523Z,25.20
2018-05-14T13:20:24.588Z,25.20
2018-05-14T13:22:52.608Z,25.30
2018-05-14T13:25:20.695Z,25.40
2018-05-14T13:27:48.691Z,25.40
2018-05-14T13:30:17.543Z,25.50
2018-05-14T13:32:45.656Z,25.50
2018-05-14T13:35:13.755Z,25.50
2018-05-14T13:37:41.926Z,25.60
2018-05-14T13:40:10.645Z,25.60
2018-05-14T13:42:38.746Z,25.60
2018-05-14T13:45:06.820Z,25.60
2018-05-14T13:47:34.899Z,25.70
2018-05-14T13:50:02.957Z,25.70
2018-05-14T13:52:31.050Z,25.70
2018-05-14T13:54:59.092Z,25.80
2018-05-14T13:57:27.222Z,25.90
2018-05-14T13:59:55.261Z,26.00
2018-05-14T14:02:23.306Z,26.10
2018-05-14T14:04:51.463Z,26.20
2018-05-14T14:07:19.488Z,26.30
2018-05-14T14:09:47.590Z,26.50
2018-05-14T14:12:15.701Z,26.60
2018-05-14T14:14:43.799Z,26.40
2018-05-14T14:17:11.893Z,26.30
2018-05-14T14:19:40.049Z,26.20
2018-05-14T14:22:08.115Z,26.00
2018-05-14T14:24:36.165Z,26.00
2018-05-14T14:27:04.215Z,26.00
2018-05-14T14:29:32.259Z,26.00
2018-05-14T14:32:01.091Z,26.30
2018-05-14T14:34:29.190Z,26.30
2018-05-14T14:36:57.272Z,26.20
2018-05-14T14:39:41.257Z,26.30
2018-05-14T14:42:09.335Z,26.30
2018-05-14T14:44:38.118Z,26.40
2018-05-14T14:47:06.206Z,26.40
2018-05-14T14:49:34.300Z,26.30
2018-05-14T14:52:02.355Z,26.20
2018-05-14T14:54:30.446Z,26.00
2018-05-14T14:56:58.492Z,25.90
2018-05-14T14:59:38.375Z,25.80
2018-05-14T15:02:06.457Z,25.70
2018-05-14T15:04:34.533Z,25.60
2018-05-14T15:07:02.659Z,25.50
2018-05-14T15:09:30.630Z,25.40
2018-05-14T15:11:58.718Z,25.30
2018-05-14T15:14:26.766Z,25.20
2018-05-14T15:16:54.863Z,25.20
2018-05-14T15:19:22.951Z,25.20
2018-05-14T15:21:51.005Z,25.10
2018-05-14T15:24:19.078Z,25.20
2018-05-14T15:26:47.160Z,25.20
2018-05-14T15:29:17.189Z,25.30
2018-05-14T15:31:45.243Z,25.20
2018-05-14T15:34:14.345Z,25.10
2018-05-14T15:36:42.430Z,25.00
2018-05-14T15:39:10.497Z,24.90
2018-05-14T15:41:41.566Z,24.90
2018-05-14T15:44:10.384Z,24.80
2018-05-14T15:46:38.417Z,24.80
2018-05-14T15:49:07.371Z,24.90
2018-05-14T15:51:36.258Z,24.90
2018-05-14T15:54:11.102Z,24.90
2018-05-14T15:56:42.168Z,25.00
2018-05-14T15:59:10.953Z,25.20
2018-05-14T16:01:39.083Z,25.20
2018-05-14T16:04:07.169Z,25.30
2018-05-14T16:06:35.250Z,25.40
2018-05-14T16:09:04.842Z,25.50
2018-05-14T16:11:32.886Z,25.40
2018-05-14T16:14:00.938Z,25.80
2018-05-14T16:16:29.030Z,27.10
2018-05-14T16:18:57.119Z,28.50
2018-05-14T16:21:25.202Z,29.60
2018-05-14T16:23:53.245Z,30.10
2018-05-14T16:26:21.351Z,30.50
2018-05-14T16:28:49.467Z,30.40
2018-05-14T16:31:17.503Z,29.90
2018-05-14T16:33:45.585Z,29.20
2018-05-14T16:36:14.399Z,27.80
2018-05-14T16:38:42.490Z,27.80
2018-05-14T16:41:10.576Z,27.20
2018-05-14T16:43:38.669Z,26.80
2018-05-14T16:46:07.670Z,26.60
2018-05-14T16:48:35.729Z,27.10
2018-05-14T16:51:03.774Z,27.60
2018-05-14T16:53:31.857Z,27.50
2018-05-14T16:55:59.931Z,27.20
2018-05-14T16:58:27.986Z,27.00
2018-05-14T17:00:56.022Z,27.80
2018-05-14T17:03:24.070Z,29.20
2018-05-14T17:05:52.156Z,29.70
2018-05-14T17:08:21.006Z,30.50
2018-05-14T17:10:49.106Z,30.50
2018-05-14T17:13:17.174Z,31.20
2018-05-14T17:15:45.226Z,31.60
2018-05-14T17:18:13.331Z,32.10
2018-05-14T17:20:42.167Z,32.40
2018-05-14T17:23:10.237Z,32.30
2018-05-14T17:25:38.342Z,33.00
2018-05-14T17:28:06.428Z,33.20
2018-05-14T17:30:34.467Z,33.10
2018-05-14T17:33:02.523Z,33.20
2018-05-14T17:35:30.611Z,33.10
2018-05-14T17:37:58.718Z,33.00
2018-05-14T17:40:27.578Z,33.40
2018-05-14T17:42:55.662Z,33.40
2018-05-14T17:45:23.717Z,33.40
2018-05-14T17:47:51.792Z,32.70
2018-05-14T17:50:20.798Z,33.10
2018-05-14T17:52:50.180Z,33.20
2018-05-14T17:55:26.267Z,33.30
2018-05-14T17:57:54.339Z,33.40
2018-05-14T18:00:22.542Z,33.90
2018-05-14T18:02:50.591Z,33.70
2018-05-14T18:05:19.514Z,33.20
2018-05-14T18:07:47.507Z,33.20
2018-05-14T18:10:15.631Z,32.70
2018-05-14T18:12:44.497Z,32.50
2018-05-14T18:15:12.558Z,32.40
2018-05-14T18:17:40.631Z,32.10
2018-05-14T18:20:14.414Z,32.00
2018-05-14T18:22:42.463Z,31.40
2018-05-14T18:25:34.426Z,31.00
2018-05-14T18:28:08.274Z,30.60
2018-05-14T18:30:38.992Z,29.60
2018-05-14T18:33:10.866Z,29.50
2018-05-14T18:35:43.750Z,29.20
2018-05-14T18:38:28.675Z,28.50
2018-05-14T18:40:56.784Z,27.70
2018-05-14T18:43:24.855Z,27.10
2018-05-14T18:45:52.908Z,26.60
2018-05-14T18:48:21.016Z,25.90
2018-05-14T18:50:49.096Z,25.40
2018-05-14T18:53:25.025Z,25.00
2018-05-14T18:55:53.071Z,24.40
2018-05-14T18:58:21.169Z,24.00
2018-05-14T19:00:50.042Z,23.40
2018-05-14T19:03:18.146Z,23.40
2018-05-14T19:05:47.001Z,23.00
2018-05-14T19:08:15.054Z,23.00
2018-05-14T19:10:48.767Z,22.80
2018-05-14T19:13:18.873Z,22.60
2018-05-14T19:15:52.777Z,22.40
2018-05-14T19:18:20.847Z,22.20
2018-05-14T19:20:48.950Z,22.10
2018-05-14T19:23:22.807Z,21.90
2018-05-14T19:25:50.857Z,21.90
2018-05-14T19:28:24.537Z,21.70
2018-05-14T19:30:52.654Z,21.50
2018-05-14T19:33:26.427Z,21.40
2018-05-14T19:35:59.925Z,21.30
2018-05-14T19:38:28.726Z,21.20
2018-05-14T19:40:57.562Z,21.10
2018-05-14T19:43:25.679Z,21.10
2018-05-14T19:45:54.505Z,20.90
2018-05-14T19:48:22.603Z,20.80
2018-05-14T19:50:50.703Z,20.80
2018-05-14T19:53:18.899Z,20.70
2018-05-14T19:55:46.894Z,20.60
2018-05-14T19:58:14.954Z,20.60
2018-05-14T20:00:43.076Z,20.50
2018-05-14T20:03:11.949Z,20.40
2018-05-14T20:05:40.000Z,20.30
2018-05-14T20:08:08.054Z,20.30
2018-05-14T20:10:36.140Z,20.30
2018-05-14T20:13:04.245Z,20.20
2018-05-14T20:15:32.315Z,20.20
2018-05-14T20:18:00.284Z,20.10
2018-05-14T20:20:29.231Z,20.00
2018-05-14T20:22:57.341Z,20.00
2018-05-14T20:25:25.418Z,20.00
2018-05-14T20:27:53.586Z,19.90
2018-05-14T20:30:21.631Z,19.90
2018-05-14T20:32:49.738Z,19.80
2018-05-14T20:35:17.816Z,19.80
2018-05-14T20:37:45.835Z,19.70
2018-05-14T20:40:13.906Z,19.70
2018-05-14T20:42:42.006Z,19.60
2018-05-14T20:45:10.153Z,19.50
2018-05-14T20:47:50.268Z,19.50
2018-05-14T20:50:18.349Z,19.40
2018-05-14T20:52:47.218Z,19.30
2018-05-14T20:55:16.009Z,19.20
2018-05-14T20:57:44.091Z,19.20
2018-05-14T21:00:12.928Z,19.10
2018-05-14T21:02:41.051Z,19.10
2018-05-14T21:05:09.087Z,19.10
2018-05-14T21:07:37.175Z,19.10
2018-05-14T21:10:05.342Z,19.00
2018-05-14T21:12:34.143Z,18.90
2018-05-14T22:55:02.293Z,16.80
2018-05-14T22:57:31.098Z,16.70
2018-05-14T22:59:59.143Z,16.70
2018-05-14T23:02:27.193Z,16.70
2018-05-14T23:04:55.259Z,16.60
2018-05-14T23:07:23.342Z,16.60
2018-05-14T23:09:51.439Z,16.60
2018-05-14T23:12:20.290Z,16.50
2018-05-14T23:14:48.391Z,16.50
2018-05-14T23:17:18.486Z,16.40
2018-05-14T23:19:46.571Z,16.40
2018-05-14T23:22:16.494Z,16.40
2018-05-14T23:24:44.541Z,16.30
2018-05-14T23:27:14.558Z,16.30
2018-05-14T23:29:42.555Z,16.20
2018-05-14T23:32:10.676Z,16.20
2018-05-14T23:34:38.839Z,16.10
2018-05-14T23:37:06.907Z,16.10
2018-05-14T23:39:35.001Z,16.10
2018-05-14T23:42:03.091Z,16.10
2018-05-14T23:44:31.182Z,16.10
2018-05-14T23:46:59.266Z,16.00
2018-05-14T23:49:28.122Z,15.90
2018-05-14T23:51:56.219Z,15.90
2018-05-14T23:54:24.325Z,15.80
2018-05-14T23:56:52.399Z,15.80
2018-05-14T23:59:20.503Z,15.80
